sensor_id;sensor_type;location;lat;lon;timestamp;pressure;altitude;pressure_sealevel;temperature
19948;BMP180;10135;50.702;7.276;2024-03-25T06:00:34;98626.00;;;9.60
19948;BMP180;10135;50.702;7.276;2024-03-25T06:02:34;98624.00;;;9.70
19948;BMP180;10135;50.702;7.276;2024-03-25T06:04:35;98619.00;;;9.70
19948;BMP180;10135;50.702;7.276;2024-03-25T06:06:35;98618.00;;;9.80
19948;BMP180;10135;50.702;7.276;2024-03-25T06:08:36;98609.00;;;9.90
19948;BMP180;10135;50.702;7.276;2024-03-25T06:10:38;98616.00;;;10.00
19948;BMP180;10135;50.702;7.276;2024-03-25T06:12:38;98624.00;;;10.20
19948;BMP180;10135;50.702;7.276;2024-03-25T06:14:39;98622.00;;;10.50
19948;BMP180;10135;50.702;7.276;2024-03-25T06:16:40;98619.00;;;10.80
19948;BMP180;10135;50.702;7.276;2024-03-25T06:18:41;98622.00;;;11.30
19948;BMP180;10135;50.702;7.276;2024-03-25T06:20:42;98619.00;;;11.70
19948;BMP180;10135;50.702;7.276;2024-03-25T06:22:43;98625.00;;;12.30
19948;BMP180;10135;50.702;7.276;2024-03-25T06:24:43;98616.00;;;12.80
19948;BMP180;10135;50.702;7.276;2024-03-25T06:26:44;98612.00;;;13.30
19948;BMP180;10135;50.702;7.276;2024-03-25T06:28:45;98614.00;;;13.80
19948;BMP180;10135;50.702;7.276;2024-03-25T06:30:47;98615.00;;;14.40
19948;BMP180;10135;50.702;7.276;2024-03-25T06:33:06;98620.00;;;14.90
19948;BMP180;10135;50.702;7.276;2024-03-25T06:35:25;98624.00;;;15.50
19948;BMP180;10135;50.702;7.276;2024-03-25T06:37:26;98621.00;;;16.00
19948;BMP180;10135;50.702;7.276;2024-03-25T06:39:27;98629.00;;;16.40
19948;BMP180;10135;50.702;7.276;2024-03-25T06:41:27;98629.00;;;16.70
19948;BMP180;10135;50.702;7.276;2024-03-25T06:43:28;98626.00;;;17.10
19948;BMP180;10135;50.702;7.276;2024-03-25T06:45:29;98627.00;;;17.40
19948;BMP180;10135;50.702;7.276;2024-03-25T06:47:29;98620.00;;;17.70
19948;BMP180;10135;50.702;7.276;2024-03-25T06:49:30;98625.00;;;18.00
19948;BMP180;10135;50.702;7.276;2024-03-25T06:51:31;98625.00;;;18.20
19948;BMP180;10135;50.702;7.276;2024-03-25T06:53:31;98625.00;;;18.50
19948;BMP180;10135;50.702;7.276;2024-03-25T06:55:32;98628.00;;;18.70
19948;BMP180;10135;50.702;7.276;2024-03-25T06:57:33;98627.00;;;18.80
19948;BMP180;10135;50.702;7.276;2024-03-25T06:59:33;98624.00;;;19.00
19948;BMP180;10135;50.702;7.276;2024-03-25T07:01:36;98619.00;;;19.10
19948;BMP180;10135;50.702;7.276;2024-03-25T07:03:37;98629.00;;;19.30
19948;BMP180;10135;50.702;7.276;2024-03-25T07:05:38;98627.00;;;19.40
19948;BMP180;10135;50.702;7.276;2024-03-25T07:07:39;98616.00;;;19.50
19948;BMP180;10135;50.702;7.276;2024-03-25T07:09:39;98620.00;;;19.50
19948;BMP180;10135;50.702;7.276;2024-03-25T07:11:40;98621.00;;;19.60
19948;BMP180;10135;50.702;7.276;2024-03-25T07:13:44;98624.00;;;19.80
19948;BMP180;10135;50.702;7.276;2024-03-25T07:15:46;98625.00;;;19.80
19948;BMP180;10135;50.702;7.276;2024-03-25T07:17:46;98630.00;;;19.90
19948;BMP180;10135;50.702;7.276;2024-03-25T07:19:48;98626.00;;;19.80
19948;BMP180;10135;50.702;7.276;2024-03-25T07:21:48;98623.00;;;19.70
19948;BMP180;10135;50.702;7.276;2024-03-25T07:23:49;98625.00;;;19.70
19948;BMP180;10135;50.702;7.276;2024-03-25T07:25:50;98623.00;;;19.70
19948;BMP180;10135;50.702;7.276;2024-03-25T07:27:52;98619.00;;;19.70
19948;BMP180;10135;50.702;7.276;2024-03-25T07:29:55;98623.00;;;19.60
19948;BMP180;10135;50.702;7.276;2024-03-25T07:31:55;98628.00;;;19.60
19948;BMP180;10135;50.702;7.276;2024-03-25T07:33:56;98632.00;;;19.50
19948;BMP180;10135;50.702;7.276;2024-03-25T07:35:57;98622.00;;;19.40
19948;BMP180;10135;50.702;7.276;2024-03-25T07:37:57;98622.00;;;19.40
19948;BMP180;10135;50.702;7.276;2024-03-25T07:39:58;98621.00;;;19.50
19948;BMP180;10135;50.702;7.276;2024-03-25T07:41:59;98630.00;;;19.60
19948;BMP180;10135;50.702;7.276;2024-03-25T07:43:59;98624.00;;;19.60
19948;BMP180;10135;50.702;7.276;2024-03-25T07:46:00;98626.00;;;19.50
19948;BMP180;10135;50.702;7.276;2024-03-25T07:48:00;98629.00;;;19.30
19948;BMP180;10135;50.702;7.276;2024-03-25T07:50:02;98619.00;;;19.10
19948;BMP180;10135;50.702;7.276;2024-03-25T07:52:03;98623.00;;;18.80
19948;BMP180;10135;50.702;7.276;2024-03-25T07:54:04;98629.00;;;18.60
19948;BMP180;10135;50.702;7.276;2024-03-25T07:56:05;98625.00;;;18.40
19948;BMP180;10135;50.702;7.276;2024-03-25T07:58:06;98622.00;;;18.30
19948;BMP180;10135;50.702;7.276;2024-03-25T08:00:07;98623.00;;;18.30
19948;BMP180;10135;50.702;7.276;2024-03-25T08:02:09;98616.00;;;18.30
19948;BMP180;10135;50.702;7.276;2024-03-25T08:04:10;98622.00;;;18.30
19948;BMP180;10135;50.702;7.276;2024-03-25T08:06:10;98622.00;;;18.30
19948;BMP180;10135;50.702;7.276;2024-03-25T08:08:11;98624.00;;;18.40
19948;BMP180;10135;50.702;7.276;2024-03-25T08:10:12;98623.00;;;18.50
19948;BMP180;10135;50.702;7.276;2024-03-25T08:12:12;98624.00;;;18.60
19948;BMP180;10135;50.702;7.276;2024-03-25T08:14:13;98626.00;;;18.70
19948;BMP180;10135;50.702;7.276;2024-03-25T08:16:13;98626.00;;;18.80
19948;BMP180;10135;50.702;7.276;2024-03-25T08:18:14;98627.00;;;18.90
19948;BMP180;10135;50.702;7.276;2024-03-25T08:20:15;98623.00;;;18.90
19948;BMP180;10135;50.702;7.276;2024-03-25T08:22:15;98621.00;;;19.00
19948;BMP180;10135;50.702;7.276;2024-03-25T08:24:16;98625.00;;;19.20
19948;BMP180;10135;50.702;7.276;2024-03-25T08:26:17;98619.00;;;19.30
19948;BMP180;10135;50.702;7.276;2024-03-25T08:28:18;98619.00;;;19.40
19948;BMP180;10135;50.702;7.276;2024-03-25T08:30:18;98621.00;;;19.40
19948;BMP180;10135;50.702;7.276;2024-03-25T08:32:19;98619.00;;;19.40
19948;BMP180;10135;50.702;7.276;2024-03-25T08:34:20;98628.00;;;19.30
19948;BMP180;10135;50.702;7.276;2024-03-25T08:36:20;98623.00;;;19.30
19948;BMP180;10135;50.702;7.276;2024-03-25T08:38:21;98625.00;;;19.30
19948;BMP180;10135;50.702;7.276;2024-03-25T08:40:22;98618.00;;;19.20
19948;BMP180;10135;50.702;7.276;2024-03-25T08:42:22;98629.00;;;19.20
19948;BMP180;10135;50.702;7.276;2024-03-25T08:44:23;98620.00;;;19.10
19948;BMP180;10135;50.702;7.276;2024-03-25T08:46:23;98621.00;;;19.00
19948;BMP180;10135;50.702;7.276;2024-03-25T08:48:24;98622.00;;;19.00
19948;BMP180;10135;50.702;7.276;2024-03-25T08:50:25;98620.00;;;19.00
19948;BMP180;10135;50.702;7.276;2024-03-25T08:52:25;98621.00;;;19.10
19948;BMP180;10135;50.702;7.276;2024-03-25T08:54:26;98628.00;;;19.10
19948;BMP180;10135;50.702;7.276;2024-03-25T08:56:26;98626.00;;;19.20
19948;BMP180;10135;50.702;7.276;2024-03-25T08:58:27;98626.00;;;19.30
19948;BMP180;10135;50.702;7.276;2024-03-25T09:00:28;98630.00;;;19.30
19948;BMP180;10135;50.702;7.276;2024-03-25T09:02:29;98619.00;;;19.40
19948;BMP180;10135;50.702;7.276;2024-03-25T09:04:29;98611.00;;;19.40
19948;BMP180;10135;50.702;7.276;2024-03-25T09:06:30;98614.00;;;19.40
19948;BMP180;10135;50.702;7.276;2024-03-25T09:08:30;98612.00;;;19.40
19948;BMP180;10135;50.702;7.276;2024-03-25T09:10:37;98619.00;;;19.30
19948;BMP180;10135;50.702;7.276;2024-03-25T09:12:56;98612.00;;;19.20
19948;BMP180;10135;50.702;7.276;2024-03-25T09:14:57;98613.00;;;19.10
19948;BMP180;10135;50.702;7.276;2024-03-25T09:16:57;98612.00;;;19.00
19948;BMP180;10135;50.702;7.276;2024-03-25T09:18:58;98612.00;;;18.80
19948;BMP180;10135;50.702;7.276;2024-03-25T09:20:59;98606.00;;;18.70
19948;BMP180;10135;50.702;7.276;2024-03-25T09:22:59;98605.00;;;18.60
19948;BMP180;10135;50.702;7.276;2024-03-25T09:25:00;98600.00;;;18.50
19948;BMP180;10135;50.702;7.276;2024-03-25T09:27:00;98601.00;;;18.40
19948;BMP180;10135;50.702;7.276;2024-03-25T09:29:01;98599.00;;;18.30
19948;BMP180;10135;50.702;7.276;2024-03-25T09:31:03;98600.00;;;18.20
19948;BMP180;10135;50.702;7.276;2024-03-25T09:33:06;98595.00;;;18.10
19948;BMP180;10135;50.702;7.276;2024-03-25T09:35:07;98588.00;;;18.00
19948;BMP180;10135;50.702;7.276;2024-03-25T09:37:07;98584.00;;;18.00
19948;BMP180;10135;50.702;7.276;2024-03-25T09:39:08;98589.00;;;17.90
19948;BMP180;10135;50.702;7.276;2024-03-25T09:41:09;98586.00;;;17.80
19948;BMP180;10135;50.702;7.276;2024-03-25T09:43:23;98588.00;;;17.80
19948;BMP180;10135;50.702;7.276;2024-03-25T09:45:29;98585.00;;;17.70
19948;BMP180;10135;50.702;7.276;2024-03-25T09:47:30;98585.00;;;17.70
19948;BMP180;10135;50.702;7.276;2024-03-25T09:49:32;98588.00;;;17.60
19948;BMP180;10135;50.702;7.276;2024-03-25T09:51:33;98580.00;;;17.50
19948;BMP180;10135;50.702;7.276;2024-03-25T09:53:35;98580.00;;;17.50
19948;BMP180;10135;50.702;7.276;2024-03-25T09:55:35;98575.00;;;17.40
19948;BMP180;10135;50.702;7.276;2024-03-25T09:57:37;98571.00;;;17.30
19948;BMP180;10135;50.702;7.276;2024-03-25T09:59:39;98575.00;;;17.30
19948;BMP180;10135;50.702;7.276;2024-03-25T10:01:40;98574.00;;;17.20
19948;BMP180;10135;50.702;7.276;2024-03-25T10:03:40;98571.00;;;17.20
19948;BMP180;10135;50.702;7.276;2024-03-25T10:05:41;98567.00;;;17.10
19948;BMP180;10135;50.702;7.276;2024-03-25T10:07:42;98565.00;;;17.00
19948;BMP180;10135;50.702;7.276;2024-03-25T10:09:43;98562.00;;;17.00
19948;BMP180;10135;50.702;7.276;2024-03-25T10:11:47;98567.00;;;16.90
19948;BMP180;10135;50.702;7.276;2024-03-25T10:13:47;98564.00;;;16.90
19948;BMP180;10135;50.702;7.276;2024-03-25T10:15:49;98565.00;;;16.80
19948;BMP180;10135;50.702;7.276;2024-03-25T10:17:50;98566.00;;;16.80
19948;BMP180;10135;50.702;7.276;2024-03-25T10:19:55;98555.00;;;16.80
19948;BMP180;10135;50.702;7.276;2024-03-25T10:22:06;98554.00;;;16.80
19948;BMP180;10135;50.702;7.276;2024-03-25T10:24:07;98546.00;;;16.80
19948;BMP180;10135;50.702;7.276;2024-03-25T10:26:08;98539.00;;;16.80
19948;BMP180;10135;50.702;7.276;2024-03-25T10:28:09;98548.00;;;16.80
19948;BMP180;10135;50.702;7.276;2024-03-25T10:30:10;98539.00;;;16.80
19948;BMP180;10135;50.702;7.276;2024-03-25T10:32:13;98534.00;;;16.80
19948;BMP180;10135;50.702;7.276;2024-03-25T10:34:14;98540.00;;;16.80
19948;BMP180;10135;50.702;7.276;2024-03-25T10:36:15;98538.00;;;16.80
19948;BMP180;10135;50.702;7.276;2024-03-25T10:38:18;98528.00;;;16.80
19948;BMP180;10135;50.702;7.276;2024-03-25T10:40:22;98531.00;;;16.80
19948;BMP180;10135;50.702;7.276;2024-03-25T10:42:24;98519.00;;;16.80
19948;BMP180;10135;50.702;7.276;2024-03-25T10:44:27;98519.00;;;16.80
19948;BMP180;10135;50.702;7.276;2024-03-25T10:46:29;98515.00;;;16.80
19948;BMP180;10135;50.702;7.276;2024-03-25T10:48:39;98509.00;;;16.70
19948;BMP180;10135;50.702;7.276;2024-03-25T10:50:43;98510.00;;;16.80
19948;BMP180;10135;50.702;7.276;2024-03-25T10:52:44;98508.00;;;16.80
19948;BMP180;10135;50.702;7.276;2024-03-25T10:54:47;98505.00;;;16.80
19948;BMP180;10135;50.702;7.276;2024-03-25T10:56:48;98495.00;;;16.80
19948;BMP180;10135;50.702;7.276;2024-03-25T10:58:53;98493.00;;;16.90
19948;BMP180;10135;50.702;7.276;2024-03-25T11:00:55;98497.00;;;16.90
19948;BMP180;10135;50.702;7.276;2024-03-25T11:02:58;98492.00;;;17.00
19948;BMP180;10135;50.702;7.276;2024-03-25T11:05:00;98487.00;;;17.00
19948;BMP180;10135;50.702;7.276;2024-03-25T11:07:14;98493.00;;;17.00
19948;BMP180;10135;50.702;7.276;2024-03-25T11:09:24;98489.00;;;17.10
19948;BMP180;10135;50.702;7.276;2024-03-25T11:11:34;98483.00;;;17.10
19948;BMP180;10135;50.702;7.276;2024-03-25T11:13:36;98481.00;;;17.20
19948;BMP180;10135;50.702;7.276;2024-03-25T11:15:40;98472.00;;;17.30
19948;BMP180;10135;50.702;7.276;2024-03-25T11:17:50;98477.00;;;17.30
19948;BMP180;10135;50.702;7.276;2024-03-25T11:19:51;98477.00;;;17.40
19948;BMP180;10135;50.702;7.276;2024-03-25T11:21:53;98467.00;;;17.40
19948;BMP180;10135;50.702;7.276;2024-03-25T11:23:54;98473.00;;;17.40
19948;BMP180;10135;50.702;7.276;2024-03-25T11:25:59;98469.00;;;17.40
19948;BMP180;10135;50.702;7.276;2024-03-25T11:28:00;98472.00;;;17.50
19948;BMP180;10135;50.702;7.276;2024-03-25T11:30:01;98461.00;;;17.50
19948;BMP180;10135;50.702;7.276;2024-03-25T11:32:05;98449.00;;;17.60
19948;BMP180;10135;50.702;7.276;2024-03-25T11:34:06;98452.00;;;17.70
19948;BMP180;10135;50.702;7.276;2024-03-25T11:36:09;98440.00;;;17.70
19948;BMP180;10135;50.702;7.276;2024-03-25T11:38:10;98438.00;;;17.70
19948;BMP180;10135;50.702;7.276;2024-03-25T11:40:13;98440.00;;;17.70
19948;BMP180;10135;50.702;7.276;2024-03-25T11:42:15;98432.00;;;17.70
19948;BMP180;10135;50.702;7.276;2024-03-25T11:44:16;98429.00;;;17.60
19948;BMP180;10135;50.702;7.276;2024-03-25T11:46:24;98425.00;;;17.60
19948;BMP180;10135;50.702;7.276;2024-03-25T11:48:26;98424.00;;;17.60
19948;BMP180;10135;50.702;7.276;2024-03-25T11:50:27;98424.00;;;17.50
19948;BMP180;10135;50.702;7.276;2024-03-25T11:52:31;98421.00;;;17.50
19948;BMP180;10135;50.702;7.276;2024-03-25T11:54:32;98417.00;;;17.50
19948;BMP180;10135;50.702;7.276;2024-03-25T11:56:33;98408.00;;;17.40
19948;BMP180;10135;50.702;7.276;2024-03-25T11:58:34;98409.00;;;17.30
19948;BMP180;10135;50.702;7.276;2024-03-25T12:00:34;98409.00;;;17.30
19948;BMP180;10135;50.702;7.276;2024-03-25T12:02:35;98406.00;;;17.20
19948;BMP180;10135;50.702;7.276;2024-03-25T12:04:36;98406.00;;;17.20
19948;BMP180;10135;50.702;7.276;2024-03-25T12:06:37;98405.00;;;17.10
19948;BMP180;10135;50.702;7.276;2024-03-25T12:08:38;98401.00;;;17.10
19948;BMP180;10135;50.702;7.276;2024-03-25T12:11:00;98400.00;;;17.00
19948;BMP180;10135;50.702;7.276;2024-03-25T12:13:19;98396.00;;;17.00
19948;BMP180;10135;50.702;7.276;2024-03-25T12:15:21;98391.00;;;16.90
19948;BMP180;10135;50.702;7.276;2024-03-25T12:17:22;98384.00;;;17.00
19948;BMP180;10135;50.702;7.276;2024-03-25T12:19:26;98385.00;;;17.00
19948;BMP180;10135;50.702;7.276;2024-03-25T12:21:27;98386.00;;;17.10
19948;BMP180;10135;50.702;7.276;2024-03-25T12:23:34;98383.00;;;17.20
19948;BMP180;10135;50.702;7.276;2024-03-25T12:25:34;98376.00;;;17.30
19948;BMP180;10135;50.702;7.276;2024-03-25T12:27:39;98369.00;;;17.20
19948;BMP180;10135;50.702;7.276;2024-03-25T12:29:41;98357.00;;;17.30
19948;BMP180;10135;50.702;7.276;2024-03-25T12:31:41;98366.00;;;17.30
19948;BMP180;10135;50.702;7.276;2024-03-25T12:33:46;98365.00;;;17.20
19948;BMP180;10135;50.702;7.276;2024-03-25T12:35:48;98349.00;;;17.20
19948;BMP180;10135;50.702;7.276;2024-03-25T12:37:49;98354.00;;;17.20
19948;BMP180;10135;50.702;7.276;2024-03-25T12:39:50;98352.00;;;17.20
19948;BMP180;10135;50.702;7.276;2024-03-25T12:41:51;98349.00;;;17.10
19948;BMP180;10135;50.702;7.276;2024-03-25T12:43:52;98353.00;;;17.10
19948;BMP180;10135;50.702;7.276;2024-03-25T12:45:52;98350.00;;;17.10
19948;BMP180;10135;50.702;7.276;2024-03-25T12:47:53;98334.00;;;17.00
19948;BMP180;10135;50.702;7.276;2024-03-25T12:49:54;98335.00;;;17.00
19948;BMP180;10135;50.702;7.276;2024-03-25T12:51:54;98342.00;;;17.00
19948;BMP180;10135;50.702;7.276;2024-03-25T12:53:55;98333.00;;;17.00
19948;BMP180;10135;50.702;7.276;2024-03-25T12:55:55;98323.00;;;17.10
19948;BMP180;10135;50.702;7.276;2024-03-25T12:57:56;98320.00;;;17.10
19948;BMP180;10135;50.702;7.276;2024-03-25T12:59:57;98323.00;;;17.10
19948;BMP180;10135;50.702;7.276;2024-03-25T13:01:57;98318.00;;;17.20
19948;BMP180;10135;50.702;7.276;2024-03-25T13:03:59;98312.00;;;17.20
19948;BMP180;10135;50.702;7.276;2024-03-25T13:05:59;98302.00;;;17.10
19948;BMP180;10135;50.702;7.276;2024-03-25T13:08:02;98302.00;;;17.10
19948;BMP180;10135;50.702;7.276;2024-03-25T13:10:03;98289.00;;;17.00
19948;BMP180;10135;50.702;7.276;2024-03-25T13:12:05;98291.00;;;17.00
19948;BMP180;10135;50.702;7.276;2024-03-25T13:14:06;98301.00;;;17.00
19948;BMP180;10135;50.702;7.276;2024-03-25T13:16:07;98285.00;;;16.90
19948;BMP180;10135;50.702;7.276;2024-03-25T13:18:08;98289.00;;;16.90
19948;BMP180;10135;50.702;7.276;2024-03-25T13:20:09;98283.00;;;16.90
19948;BMP180;10135;50.702;7.276;2024-03-25T13:22:10;98288.00;;;17.00
19948;BMP180;10135;50.702;7.276;2024-03-25T13:24:10;98283.00;;;17.00
19948;BMP180;10135;50.702;7.276;2024-03-25T13:26:11;98270.00;;;17.00
19948;BMP180;10135;50.702;7.276;2024-03-25T13:28:12;98272.00;;;17.00
19948;BMP180;10135;50.702;7.276;2024-03-25T13:30:13;98269.00;;;17.10
19948;BMP180;10135;50.702;7.276;2024-03-25T13:32:14;98267.00;;;17.10
19948;BMP180;10135;50.702;7.276;2024-03-25T13:34:14;98259.00;;;17.20
19948;BMP180;10135;50.702;7.276;2024-03-25T13:36:15;98253.00;;;17.30
19948;BMP180;10135;50.702;7.276;2024-03-25T13:38:15;98248.00;;;17.30
19948;BMP180;10135;50.702;7.276;2024-03-25T13:40:16;98237.00;;;17.30
19948;BMP180;10135;50.702;7.276;2024-03-25T13:42:17;98234.00;;;17.30
19948;BMP180;10135;50.702;7.276;2024-03-25T13:44:17;98245.00;;;17.40
19948;BMP180;10135;50.702;7.276;2024-03-25T13:46:18;98231.00;;;17.40
19948;BMP180;10135;50.702;7.276;2024-03-25T13:48:19;98225.00;;;17.40
19948;BMP180;10135;50.702;7.276;2024-03-25T13:50:20;98223.00;;;17.30
19948;BMP180;10135;50.702;7.276;2024-03-25T13:52:23;98226.00;;;17.30
19948;BMP180;10135;50.702;7.276;2024-03-25T13:54:23;98219.00;;;17.30
19948;BMP180;10135;50.702;7.276;2024-03-25T13:56:25;98212.00;;;17.40
19948;BMP180;10135;50.702;7.276;2024-03-25T13:58:25;98208.00;;;17.40
19948;BMP180;10135;50.702;7.276;2024-03-25T14:00:26;98207.00;;;17.40
19948;BMP180;10135;50.702;7.276;2024-03-25T14:02:28;98211.00;;;17.40
19948;BMP180;10135;50.702;7.276;2024-03-25T14:04:30;98207.00;;;17.40
19948;BMP180;10135;50.702;7.276;2024-03-25T14:06:31;98205.00;;;17.40
19948;BMP180;10135;50.702;7.276;2024-03-25T14:08:33;98196.00;;;17.50
19948;BMP180;10135;50.702;7.276;2024-03-25T14:10:33;98197.00;;;17.50
19948;BMP180;10135;50.702;7.276;2024-03-25T14:12:34;98196.00;;;17.50
19948;BMP180;10135;50.702;7.276;2024-03-25T14:14:35;98194.00;;;17.50
19948;BMP180;10135;50.702;7.276;2024-03-25T14:16:36;98190.00;;;17.50
19948;BMP180;10135;50.702;7.276;2024-03-25T14:18:36;98186.00;;;17.40
19948;BMP180;10135;50.702;7.276;2024-03-25T14:20:37;98187.00;;;17.40
19948;BMP180;10135;50.702;7.276;2024-03-25T14:22:38;98182.00;;;17.40
19948;BMP180;10135;50.702;7.276;2024-03-25T14:24:39;98170.00;;;17.30
19948;BMP180;10135;50.702;7.276;2024-03-25T14:26:39;98169.00;;;17.30
19948;BMP180;10135;50.702;7.276;2024-03-25T14:28:41;98165.00;;;17.30
19948;BMP180;10135;50.702;7.276;2024-03-25T14:30:42;98161.00;;;17.30
19948;BMP180;10135;50.702;7.276;2024-03-25T14:32:43;98154.00;;;17.30
19948;BMP180;10135;50.702;7.276;2024-03-25T14:34:43;98151.00;;;17.20
19948;BMP180;10135;50.702;7.276;2024-03-25T14:36:44;98150.00;;;17.20
19948;BMP180;10135;50.702;7.276;2024-03-25T14:38:45;98148.00;;;17.20
19948;BMP180;10135;50.702;7.276;2024-03-25T14:40:47;98151.00;;;17.20
19948;BMP180;10135;50.702;7.276;2024-03-25T14:42:48;98158.00;;;17.20
19948;BMP180;10135;50.702;7.276;2024-03-25T14:44:49;98155.00;;;17.10
19948;BMP180;10135;50.702;7.276;2024-03-25T14:46:49;98157.00;;;17.10
19948;BMP180;10135;50.702;7.276;2024-03-25T14:48:50;98140.00;;;17.10
19948;BMP180;10135;50.702;7.276;2024-03-25T14:50:50;98139.00;;;17.00
19948;BMP180;10135;50.702;7.276;2024-03-25T14:52:51;98148.00;;;17.00
19948;BMP180;10135;50.702;7.276;2024-03-25T14:54:52;98139.00;;;17.00
19948;BMP180;10135;50.702;7.276;2024-03-25T14:56:53;98151.00;;;17.00
19948;BMP180;10135;50.702;7.276;2024-03-25T14:58:53;98137.00;;;17.00
19948;BMP180;10135;50.702;7.276;2024-03-25T15:00:54;98142.00;;;16.90
19948;BMP180;10135;50.702;7.276;2024-03-25T15:02:54;98140.00;;;17.00
19948;BMP180;10135;50.702;7.276;2024-03-25T15:04:55;98132.00;;;16.90
19948;BMP180;10135;50.702;7.276;2024-03-25T15:07:16;98138.00;;;16.90
19948;BMP180;10135;50.702;7.276;2024-03-25T15:09:17;98121.00;;;16.90
19948;BMP180;10135;50.702;7.276;2024-03-25T15:11:18;98121.00;;;16.90
19948;BMP180;10135;50.702;7.276;2024-03-25T15:13:21;98116.00;;;16.90
19948;BMP180;10135;50.702;7.276;2024-03-25T15:15:26;98115.00;;;16.90
19948;BMP180;10135;50.702;7.276;2024-03-25T15:17:35;98108.00;;;16.80
19948;BMP180;10135;50.702;7.276;2024-03-25T15:19:46;98109.00;;;16.80
19948;BMP180;10135;50.702;7.276;2024-03-25T15:21:50;98106.00;;;16.80
19948;BMP180;10135;50.702;7.276;2024-03-25T15:24:03;98102.00;;;16.70
19948;BMP180;10135;50.702;7.276;2024-03-25T15:26:04;98103.00;;;16.70
19948;BMP180;10135;50.702;7.276;2024-03-25T15:28:04;98094.00;;;16.70
19948;BMP180;10135;50.702;7.276;2024-03-25T15:30:06;98090.00;;;16.60
19948;BMP180;10135;50.702;7.276;2024-03-25T15:32:07;98088.00;;;16.60
19948;BMP180;10135;50.702;7.276;2024-03-25T15:34:07;98081.00;;;16.60
19948;BMP180;10135;50.702;7.276;2024-03-25T15:36:08;98083.00;;;16.60
19948;BMP180;10135;50.702;7.276;2024-03-25T15:38:12;98077.00;;;16.60
19948;BMP180;10135;50.702;7.276;2024-03-25T15:40:13;98075.00;;;16.60
19948;BMP180;10135;50.702;7.276;2024-03-25T15:42:18;98068.00;;;16.60
19948;BMP180;10135;50.702;7.276;2024-03-25T15:44:20;98063.00;;;16.60
19948;BMP180;10135;50.702;7.276;2024-03-25T15:46:20;98064.00;;;16.60
19948;BMP180;10135;50.702;7.276;2024-03-25T15:48:23;98056.00;;;16.60
19948;BMP180;10135;50.702;7.276;2024-03-25T15:50:28;98058.00;;;16.60
19948;BMP180;10135;50.702;7.276;2024-03-25T15:52:28;98049.00;;;16.60
19948;BMP180;10135;50.702;7.276;2024-03-25T15:54:29;98045.00;;;16.60
19948;BMP180;10135;50.702;7.276;2024-03-25T15:56:30;98047.00;;;16.60
19948;BMP180;10135;50.702;7.276;2024-03-25T15:58:31;98047.00;;;16.60
19948;BMP180;10135;50.702;7.276;2024-03-25T16:00:32;98046.00;;;16.60
19948;BMP180;10135;50.702;7.276;2024-03-25T16:02:32;98035.00;;;16.60
19948;BMP180;10135;50.702;7.276;2024-03-25T16:04:33;98038.00;;;16.60
19948;BMP180;10135;50.702;7.276;2024-03-25T16:06:34;98031.00;;;16.60
19948;BMP180;10135;50.702;7.276;2024-03-25T16:08:34;98028.00;;;16.50
19948;BMP180;10135;50.702;7.276;2024-03-25T16:10:37;98033.00;;;16.50
19948;BMP180;10135;50.702;7.276;2024-03-25T16:12:38;98043.00;;;16.50
19948;BMP180;10135;50.702;7.276;2024-03-25T16:14:38;98029.00;;;16.50
19948;BMP180;10135;50.702;7.276;2024-03-25T16:16:41;98034.00;;;16.40
19948;BMP180;10135;50.702;7.276;2024-03-25T16:18:42;98027.00;;;16.40
19948;BMP180;10135;50.702;7.276;2024-03-25T16:20:43;98013.00;;;16.40
19948;BMP180;10135;50.702;7.276;2024-03-25T16:22:46;98025.00;;;16.30
19948;BMP180;10135;50.702;7.276;2024-03-25T16:24:50;98009.00;;;16.30
19948;BMP180;10135;50.702;7.276;2024-03-25T16:26:51;98011.00;;;16.30
19948;BMP180;10135;50.702;7.276;2024-03-25T16:28:51;98015.00;;;16.30
19948;BMP180;10135;50.702;7.276;2024-03-25T16:30:52;98010.00;;;16.20
19948;BMP180;10135;50.702;7.276;2024-03-25T16:32:52;98005.00;;;16.20
19948;BMP180;10135;50.702;7.276;2024-03-25T16:34:53;98005.00;;;16.20
19948;BMP180;10135;50.702;7.276;2024-03-25T16:36:54;98009.00;;;16.10
19948;BMP180;10135;50.702;7.276;2024-03-25T16:38:54;98005.00;;;16.10
19948;BMP180;10135;50.702;7.276;2024-03-25T16:40:55;98006.00;;;16.10
19948;BMP180;10135;50.702;7.276;2024-03-25T16:42:55;98003.00;;;16.00
19948;BMP180;10135;50.702;7.276;2024-03-25T16:44:56;98001.00;;;16.00
19948;BMP180;10135;50.702;7.276;2024-03-25T16:47:00;98002.00;;;15.90
19948;BMP180;10135;50.702;7.276;2024-03-25T16:49:00;98005.00;;;15.90
19948;BMP180;10135;50.702;7.276;2024-03-25T16:51:01;98015.00;;;15.90
19948;BMP180;10135;50.702;7.276;2024-03-25T16:53:02;98006.00;;;15.80
19948;BMP180;10135;50.702;7.276;2024-03-25T16:55:05;98003.00;;;15.80
19948;BMP180;10135;50.702;7.276;2024-03-25T16:57:06;98012.00;;;15.80
19948;BMP180;10135;50.702;7.276;2024-03-25T16:59:07;98005.00;;;15.70
19948;BMP180;10135;50.702;7.276;2024-03-25T17:01:08;98001.00;;;15.70
19948;BMP180;10135;50.702;7.276;2024-03-25T17:03:08;98008.00;;;15.60
19948;BMP180;10135;50.702;7.276;2024-03-25T17:05:09;98007.00;;;15.60
19948;BMP180;10135;50.702;7.276;2024-03-25T17:07:10;98006.00;;;15.60
19948;BMP180;10135;50.702;7.276;2024-03-25T17:09:10;98008.00;;;15.50
19948;BMP180;10135;50.702;7.276;2024-03-25T17:11:11;98008.00;;;15.50
19948;BMP180;10135;50.702;7.276;2024-03-25T17:13:12;98009.00;;;15.50
19948;BMP180;10135;50.702;7.276;2024-03-25T17:15:12;98008.00;;;15.40
19948;BMP180;10135;50.702;7.276;2024-03-25T17:17:13;98016.00;;;15.40
19948;BMP180;10135;50.702;7.276;2024-03-25T17:19:13;98002.00;;;15.40
19948;BMP180;10135;50.702;7.276;2024-03-25T17:21:14;98007.00;;;15.30
19948;BMP180;10135;50.702;7.276;2024-03-25T17:23:15;98005.00;;;15.30
19948;BMP180;10135;50.702;7.276;2024-03-25T17:25:16;97996.00;;;15.30
19948;BMP180;10135;50.702;7.276;2024-03-25T17:27:16;98007.00;;;15.20
19948;BMP180;10135;50.702;7.276;2024-03-25T17:29:17;98008.00;;;15.20
19948;BMP180;10135;50.702;7.276;2024-03-25T17:31:17;98000.00;;;15.10
19948;BMP180;10135;50.702;7.276;2024-03-25T17:33:18;97997.00;;;15.10
19948;BMP180;10135;50.702;7.276;2024-03-25T17:35:19;97995.00;;;15.00
19948;BMP180;10135;50.702;7.276;2024-03-25T17:37:19;97989.00;;;15.00
19948;BMP180;10135;50.702;7.276;2024-03-25T17:39:22;97990.00;;;15.00
19948;BMP180;10135;50.702;7.276;2024-03-25T17:41:22;97987.00;;;14.90